createdAt,value
2023-04-05T00:00:13.481Z,101222.59
2023-04-05T00:02:45.408Z,101222.22
2023-04-05T00:05:14.829Z,101222.63
2023-04-05T00:07:48.285Z,101226.47
2023-04-05T00:10:17.784Z,101225.22
2023-04-05T00:12:47.075Z,101215.41
2023-04-05T00:15:16.542Z,101213.91
2023-04-05T00:17:48.489Z,101217.50
2023-04-05T00:20:17.788Z,101208.25
2023-04-05T00:22:47.408Z,101209.91
2023-04-05T00:25:16.656Z,101200.91
2023-04-05T00:27:45.957Z,101203.25
2023-04-05T00:30:20.870Z,101204.38
2023-04-05T00:32:53.110Z,101209.78
2023-04-05T00:35:22.884Z,101205.78
2023-04-05T00:37:52.157Z,101207.44
2023-04-05T00:40:21.734Z,101213.50
2023-04-05T00:42:51.081Z,101206.63
2023-04-05T00:45:20.590Z,101207.72
2023-04-05T00:47:49.973Z,101199.03
2023-04-05T00:50:22.014Z,101198.75
2023-04-05T00:52:51.430Z,101204.84
2023-04-05T00:55:20.818Z,101202.75
2023-04-05T00:57:50.176Z,101200.31
2023-04-05T01:00:19.685Z,101199.50
2023-04-05T01:02:52.438Z,101201.16
2023-04-05T01:05:28.785Z,101197.13
2023-04-05T01:08:00.550Z,101192.84
2023-04-05T01:10:30.998Z,101190.94
2023-04-05T01:13:00.293Z,101193.69
2023-04-05T01:15:29.630Z,101190.66
2023-04-05T01:18:02.287Z,101184.88
2023-04-05T01:20:34.692Z,101186.97
2023-04-05T01:23:16.441Z,101179.94
2023-04-05T01:26:00.883Z,101180.50
2023-04-05T01:28:37.983Z,101171.13
2023-04-05T01:31:10.881Z,101169.75
2023-04-05T01:33:42.461Z,101168.41
2023-04-05T01:36:13.878Z,101158.88
2023-04-05T01:38:43.332Z,101156.69
2023-04-05T01:41:12.598Z,101162.09
2023-04-05T01:43:41.962Z,101156.56
2023-04-05T01:46:13.860Z,101152.59
2023-04-05T01:48:43.185Z,101158.94
2023-04-05T01:51:12.548Z,101159.22
2023-04-05T01:53:42.155Z,101161.88
2023-04-05T01:56:11.449Z,101154.59
2023-04-05T01:58:41.428Z,101154.44
2023-04-05T02:01:10.740Z,101160.25
2023-04-05T02:03:42.836Z,101157.91
2023-04-05T02:06:12.232Z,101158.47
2023-04-05T02:08:41.582Z,101160.97
2023-04-05T02:11:11.337Z,101156.53
2023-04-05T02:13:40.628Z,101161.22
2023-04-05T02:16:09.924Z,101153.22
2023-04-05T02:18:41.997Z,101142.88
2023-04-05T02:21:11.694Z,101150.19
2023-04-05T02:23:41.025Z,101144.00
2023-04-05T02:26:10.469Z,101138.38
2023-04-05T02:28:39.809Z,101144.50
2023-04-05T02:31:11.648Z,101139.03
2023-04-05T02:33:43.520Z,101133.50
2023-04-05T02:36:13.547Z,101143.44
2023-04-05T02:38:42.839Z,101135.00
2023-04-05T02:41:12.667Z,101137.94
2023-04-05T02:43:41.969Z,101140.81
2023-04-05T02:46:11.258Z,101128.81
2023-04-05T02:48:43.520Z,101138.31
2023-04-05T02:51:12.800Z,101127.19
2023-04-05T02:53:42.585Z,101136.28
2023-04-05T02:56:11.850Z,101131.59
2023-04-05T02:58:41.176Z,101130.75
2023-04-05T03:01:10.500Z,101131.19
2023-04-05T03:03:40.869Z,101143.44
2023-04-05T03:06:13.527Z,101132.81
2023-04-05T03:08:44.305Z,101147.72
2023-04-05T03:11:13.676Z,101134.47
2023-04-05T03:13:43.016Z,101130.63
2023-04-05T03:16:12.868Z,101127.88
2023-04-05T03:18:42.164Z,101134.72
2023-04-05T03:21:14.217Z,101135.25
2023-04-05T03:23:43.532Z,101142.25
2023-04-05T03:26:13.256Z,101131.47
2023-04-05T03:28:45.379Z,101128.00
2023-04-05T03:31:14.803Z,101128.28
2023-04-05T03:33:44.132Z,101130.50
2023-04-05T03:36:16.738Z,101132.56
2023-04-05T03:38:47.001Z,101131.22
2023-04-05T03:41:16.422Z,101134.53
2023-04-05T03:43:45.758Z,101139.63
2023-04-05T03:46:15.072Z,101135.66
2023-04-05T03:48:44.357Z,101128.25
2023-04-05T03:51:16.708Z,101126.72
2023-04-05T03:53:46.216Z,101125.19
2023-04-05T03:56:15.917Z,101126.00
2023-04-05T03:58:45.166Z,101134.41
2023-04-05T04:01:14.851Z,101128.09
2023-04-05T04:03:44.140Z,101133.19
2023-04-05T04:06:18.648Z,101118.03
2023-04-05T04:08:48.605Z,101127.66
2023-04-05T04:11:17.930Z,101128.63
2023-04-05T04:13:47.202Z,101121.06
2023-04-05T04:16:18.235Z,101124.91
2023-04-05T04:18:47.572Z,101128.88
2023-04-05T04:21:19.433Z,101132.56
2023-04-05T04:23:50.277Z,101129.03
2023-04-05T04:26:29.160Z,101130.66
2023-04-05T04:28:58.607Z,101128.06
2023-04-05T04:31:27.893Z,101129.97
2023-04-05T04:33:57.150Z,101127.22
2023-04-05T04:36:39.418Z,101128.88
2023-04-05T04:39:09.049Z,101125.56
2023-04-05T04:41:38.383Z,101126.78
2023-04-05T04:44:07.754Z,101131.75
2023-04-05T04:46:43.148Z,101129.03
2023-04-05T04:49:13.475Z,101117.84
2023-04-05T04:51:45.407Z,101122.41
2023-04-05T04:54:16.959Z,101126.41
2023-04-05T04:56:46.229Z,101127.50
2023-04-05T04:59:16.316Z,101131.06
2023-04-05T05:01:47.670Z,101141.66
2023-04-05T05:04:16.994Z,101139.97
2023-04-05T05:06:48.912Z,101136.44
2023-04-05T05:09:18.181Z,101128.88
2023-04-05T05:11:47.437Z,101138.28
2023-04-05T05:14:16.730Z,101136.50
2023-04-05T05:16:46.119Z,101125.63
2023-04-05T05:19:15.448Z,101129.66
2023-04-05T05:21:44.720Z,101125.81
2023-04-05T05:24:16.846Z,101127.31
2023-04-05T05:26:46.174Z,101137.38
2023-04-05T05:29:15.609Z,101129.50
2023-04-05T05:31:45.233Z,101127.03
2023-04-05T05:34:14.536Z,101129.38
2023-04-05T05:36:44.084Z,101127.13
2023-04-05T05:39:16.103Z,101128.19
2023-04-05T05:41:45.512Z,101130.47
2023-04-05T05:44:14.976Z,101132.19
2023-04-05T05:46:44.282Z,101124.53
2023-04-05T05:49:13.580Z,101131.78
2023-04-05T05:51:42.881Z,101124.50
2023-04-05T05:54:12.174Z,101129.09
2023-04-05T05:56:44.066Z,101123.31
2023-04-05T05:59:13.416Z,101119.56
2023-04-05T06:01:46.636Z,101134.66
2023-04-05T06:04:16.696Z,101133.94
2023-04-05T06:06:47.883Z,101138.63
2023-04-05T06:09:17.425Z,101132.38
2023-04-05T06:11:56.433Z,101132.16
2023-04-05T06:14:27.206Z,101133.06
2023-04-05T06:16:56.729Z,101137.28
2023-04-05T06:19:26.049Z,101136.13
2023-04-05T06:21:55.502Z,101136.94
2023-04-05T06:24:24.795Z,101133.78
2023-04-05T06:26:56.954Z,101127.44
2023-04-05T06:29:26.301Z,101136.88
2023-04-05T06:31:55.753Z,101140.47
2023-04-05T06:34:25.078Z,101139.03
2023-04-05T06:36:56.017Z,101141.78
2023-04-05T06:39:25.280Z,101144.63
2023-04-05T06:41:57.914Z,101131.91
2023-04-05T06:44:27.306Z,101137.94
2023-04-05T06:46:56.589Z,101131.25
2023-04-05T06:49:25.996Z,101131.25
2023-04-05T06:51:55.273Z,101136.81
2023-04-05T06:54:25.121Z,101134.94
2023-04-05T06:56:57.747Z,101134.94
2023-04-05T06:59:27.828Z,101138.34
2023-04-05T07:01:57.116Z,101126.09
2023-04-05T07:04:26.849Z,101131.66
2023-04-05T07:06:56.865Z,101133.91
2023-04-05T07:09:28.858Z,101140.34
2023-04-05T07:12:01.682Z,101129.13
2023-04-05T07:14:32.800Z,101131.69
2023-04-05T07:17:02.105Z,101120.34
2023-04-05T07:19:31.615Z,101123.34
2023-04-05T07:22:01.790Z,101112.44
2023-04-05T07:24:31.124Z,101108.00
2023-04-05T07:27:03.232Z,101109.81
2023-04-05T07:29:32.884Z,101112.19
2023-04-05T07:32:02.251Z,101109.66
2023-04-05T07:34:31.522Z,101115.06
2023-04-05T07:37:00.789Z,101117.56
2023-04-05T07:39:30.227Z,101110.78
2023-04-05T07:41:59.513Z,101119.56
2023-04-05T07:44:31.410Z,101113.06
2023-04-05T07:47:00.817Z,101107.91
2023-04-05T07:49:30.728Z,101114.53
2023-04-05T07:52:00.023Z,101109.38
2023-04-05T07:54:29.471Z,101110.50
2023-04-05T07:56:58.788Z,101117.09
2023-04-05T07:59:28.124Z,101119.81
2023-04-05T08:02:05.039Z,101113.81
2023-04-05T08:04:41.575Z,101111.03
2023-04-05T08:07:10.886Z,101117.06
2023-04-05T08:09:40.169Z,101110.53
2023-04-05T08:12:11.549Z,101106.13
2023-04-05T08:14:40.955Z,101106.56
2023-04-05T08:17:12.827Z,101104.81
2023-04-05T08:19:42.109Z,101105.16
2023-04-05T08:22:11.457Z,101106.41
2023-04-05T08:24:40.825Z,101104.78
2023-04-05T08:27:10.112Z,101103.72
2023-04-05T08:29:39.410Z,101097.88
2023-04-05T08:32:09.234Z,101091.56
2023-04-05T08:34:41.229Z,101103.41
2023-04-05T08:37:10.500Z,101094.72
2023-04-05T08:39:39.756Z,101087.66
2023-04-05T08:42:11.858Z,101099.38
2023-04-05T08:44:41.431Z,101094.13
2023-04-05T08:47:15.328Z,101100.03
2023-04-05T08:49:49.053Z,101102.94
2023-04-05T08:52:18.322Z,101093.91
2023-04-05T08:54:49.635Z,101096.94
2023-04-05T08:57:20.089Z,101103.63
2023-04-05T08:59:49.868Z,101099.16
2023-04-05T09:02:21.231Z,101092.28
2023-04-05T09:04:53.073Z,101097.53
2023-04-05T09:07:22.748Z,101090.09
2023-04-05T09:09:53.058Z,101084.09
2023-04-05T09:12:23.152Z,101092.22
2023-04-05T09:14:52.461Z,101089.94
2023-04-05T09:17:21.809Z,101082.09
2023-04-05T09:19:53.678Z,101079.22
2023-04-05T09:22:22.953Z,101075.38
2023-04-05T09:24:52.253Z,101086.56
2023-04-05T09:27:21.830Z,101085.06
2023-04-05T09:29:51.332Z,101089.31
2023-04-05T09:32:21.553Z,101078.16
2023-04-05T09:34:54.086Z,101081.31
2023-04-05T09:37:23.997Z,101078.03
2023-04-05T09:39:53.487Z,101087.06
2023-04-05T09:42:23.569Z,101073.22
2023-04-05T09:44:56.148Z,101082.91
2023-04-05T09:47:25.958Z,101075.03
2023-04-05T09:49:57.821Z,101079.69
2023-04-05T09:52:27.757Z,101079.56
2023-04-05T09:54:58.294Z,101074.91
2023-04-05T09:57:29.676Z,101065.97
2023-04-05T09:59:58.970Z,101065.53
2023-04-05T10:02:28.397Z,101068.56
2023-04-05T10:05:00.383Z,101072.84
2023-04-05T10:07:29.654Z,101066.47
2023-04-05T10:09:58.968Z,101055.84
2023-04-05T10:12:29.635Z,101054.75
2023-04-05T10:14:59.448Z,101046.84
2023-04-05T10:17:30.437Z,101048.84
2023-04-05T10:20:05.289Z,101056.75
2023-04-05T10:22:36.665Z,101052.47
2023-04-05T10:25:08.040Z,101046.31
2023-04-05T10:27:38.302Z,101049.84
2023-04-05T10:30:09.214Z,101046.78
2023-04-05T10:32:44.884Z,101053.41
2023-04-05T10:35:19.047Z,101051.19
2023-04-05T10:37:52.827Z,101045.81
2023-04-05T10:40:22.285Z,101040.44
2023-04-05T10:42:51.635Z,101052.06
2023-04-05T10:45:23.324Z,101043.81
2023-04-05T10:47:53.407Z,101049.22
2023-04-05T10:50:25.985Z,101038.06
2023-04-05T10:52:55.371Z,101043.97
2023-04-05T10:55:24.936Z,101038.22
2023-04-05T10:57:54.212Z,101035.97
2023-04-05T11:00:23.787Z,101029.09
2023-04-05T11:02:56.592Z,101021.13
2023-04-05T11:05:35.883Z,101023.19
2023-04-05T11:08:08.873Z,101015.00
2023-04-05T11:10:38.992Z,101012.66
2023-04-05T11:13:09.083Z,101018.56
2023-04-05T11:15:38.476Z,101016.41
2023-04-05T11:18:08.792Z,101010.47
2023-04-05T11:20:45.196Z,101012.06
2023-04-05T11:23:14.954Z,101015.63
2023-04-05T11:25:44.219Z,101012.34
2023-04-05T11:28:13.470Z,101007.63
2023-04-05T11:30:49.211Z,100997.22
2023-04-05T11:33:33.381Z,101004.66
2023-04-05T11:36:07.113Z,101009.78
2023-04-05T11:38:36.397Z,101004.13
2023-04-05T11:41:08.166Z,100990.19
2023-04-05T11:43:38.501Z,100981.78
2023-04-05T11:46:08.010Z,100976.13
2023-04-05T11:48:37.324Z,100979.69
2023-04-05T11:51:12.490Z,100981.75
2023-04-05T11:53:41.884Z,100981.97
2023-04-05T11:56:13.908Z,100978.22
2023-04-05T11:58:43.177Z,100974.78
2023-04-05T12:01:12.438Z,100970.97
2023-04-05T12:03:41.815Z,100969.06
2023-04-05T12:06:13.729Z,100958.72
2023-04-05T12:08:43.509Z,100960.75
2023-04-05T12:11:13.490Z,100962.78
2023-04-05T12:13:42.934Z,100954.66
2023-04-05T12:16:12.219Z,100948.69
2023-04-05T12:18:41.492Z,100946.63
2023-04-05T12:21:13.544Z,100953.19
2023-04-05T12:23:42.878Z,100939.91
2023-04-05T12:26:12.147Z,100939.13
2023-04-05T12:28:54.323Z,100939.53
2023-04-05T12:31:44.502Z,100940.41
2023-04-05T12:34:14.132Z,100938.34
2023-04-05T12:36:48.841Z,100944.03
2023-04-05T12:39:18.872Z,100938.88
2023-04-05T12:41:48.165Z,100923.13
2023-04-05T12:44:17.723Z,100924.53
2023-04-05T12:46:47.903Z,100925.00
2023-04-05T12:49:17.767Z,100923.56
2023-04-05T12:51:49.824Z,100921.56
2023-04-05T12:54:23.281Z,100915.94
2023-04-05T12:56:53.076Z,100913.50
2023-04-05T12:59:22.423Z,100894.72
2023-04-05T13:01:51.893Z,100894.84
2023-04-05T13:04:23.264Z,100891.63
2023-04-05T13:06:55.819Z,100892.19
2023-04-05T13:09:25.098Z,100885.72
2023-04-05T13:11:54.420Z,100888.00
2023-04-05T13:14:23.701Z,100900.88
2023-04-05T13:16:52.975Z,100893.19
2023-04-05T13:19:22.251Z,100884.09
2023-04-05T13:21:51.538Z,100878.31
2023-04-05T13:24:23.361Z,100871.84
2023-04-05T13:26:52.645Z,100863.63
2023-04-05T13:29:21.902Z,100866.03
2023-04-05T13:31:51.204Z,100858.31
2023-04-05T13:34:20.621Z,100867.31
2023-04-05T13:36:50.023Z,100876.25
2023-04-05T13:39:19.374Z,100876.97
2023-04-05T13:41:51.218Z,100873.47
2023-04-05T13:44:20.475Z,100866.09
2023-04-05T13:46:49.871Z,100860.97
2023-04-05T13:49:19.176Z,100857.25
2023-04-05T13:51:48.441Z,100851.38
2023-04-05T13:54:19.145Z,100851.38
2023-04-05T13:56:51.008Z,100848.09
2023-04-05T13:59:20.660Z,100843.00
2023-04-05T14:01:50.076Z,100838.06
2023-04-05T14:04:19.539Z,100841.47
2023-04-05T14:06:48.957Z,100835.47
2023-04-05T14:09:18.224Z,100835.88
2023-04-05T14:11:47.577Z,100838.44
2023-04-05T14:14:19.467Z,100833.31
2023-04-05T14:16:48.762Z,100832.97
2023-04-05T14:19:19.767Z,100825.28
2023-04-05T14:21:50.550Z,100834.00
2023-04-05T14:24:19.830Z,100831.56
2023-04-05T14:26:49.967Z,100820.88
2023-04-05T14:29:21.898Z,100820.53
2023-04-05T14:31:51.234Z,100815.91
2023-04-05T14:34:20.714Z,100815.09
2023-04-05T14:36:50.029Z,100809.88
2023-04-05T14:39:19.612Z,100814.78
2023-04-05T14:41:52.602Z,100819.28
2023-04-05T14:44:25.949Z,100806.78
2023-04-05T14:46:55.602Z,100806.81
2023-04-05T14:49:24.901Z,100799.69
2023-04-05T14:51:54.189Z,100798.28
2023-04-05T14:54:23.473Z,100795.78
2023-04-05T14:56:52.744Z,100797.09
2023-04-05T14:59:25.701Z,100789.53
2023-04-05T15:01:55.035Z,100788.16
2023-04-05T15:04:24.314Z,100787.75
2023-04-05T15:06:53.590Z,100776.53
2023-04-05T15:09:22.887Z,100785.91
2023-04-05T15:11:54.428Z,100784.72
2023-04-05T15:14:32.062Z,100784.59
2023-04-05T15:17:01.715Z,100780.44
2023-04-05T15:19:31.186Z,100783.75
2023-04-05T15:22:00.511Z,100768.16
2023-04-05T15:24:30.064Z,100773.34
2023-04-05T15:27:02.503Z,100770.06
2023-04-05T15:29:34.709Z,100777.09
2023-04-05T15:32:04.110Z,100769.66
2023-04-05T15:34:34.352Z,100766.69
2023-04-05T15:37:03.678Z,100763.72
2023-04-05T15:39:32.987Z,100762.69
2023-04-05T15:42:03.117Z,100765.16
2023-04-05T15:44:34.977Z,100770.56
2023-04-05T15:47:04.258Z,100770.56
2023-04-05T15:49:33.526Z,100760.09
2023-04-05T15:52:02.991Z,100755.25
2023-04-05T15:54:32.289Z,100761.19
2023-04-05T15:57:01.973Z,100763.34
2023-04-05T15:59:31.312Z,100760.47
2023-04-05T16:02:03.330Z,100758.75
2023-04-05T16:04:32.693Z,100755.38
2023-04-05T16:07:01.992Z,100749.31
2023-04-05T16:09:31.278Z,100745.41
2023-04-05T16:12:00.677Z,100747.66
2023-04-05T16:14:30.187Z,100746.00
2023-04-05T16:16:59.528Z,100745.53
2023-04-05T16:19:31.654Z,100749.34
2023-04-05T16:22:03.092Z,100743.69
2023-04-05T16:24:33.337Z,100739.28
2023-04-05T16:27:02.781Z,100755.56
2023-04-05T16:29:32.382Z,100749.06
2023-04-05T16:32:01.720Z,100746.50
2023-04-05T16:34:33.438Z,100746.44
2023-04-05T16:37:05.548Z,100746.34
2023-04-05T16:39:34.883Z,100748.47
2023-04-05T16:42:04.647Z,100738.97
2023-04-05T16:44:33.920Z,100739.06
2023-04-05T16:47:03.249Z,100754.41
2023-04-05T16:49:32.538Z,100748.75
2023-04-05T16:52:01.903Z,100742.56
2023-04-05T16:54:34.298Z,100744.78
2023-04-05T16:57:03.566Z,100748.63
2023-04-05T16:59:32.980Z,100744.53
2023-04-05T17:02:02.448Z,100742.91
2023-04-05T17:04:32.545Z,100747.13
2023-04-05T17:07:01.894Z,100742.97
2023-04-05T17:09:33.757Z,100740.03
2023-04-05T17:12:04.177Z,100745.50
2023-04-05T17:14:33.505Z,100739.06
2023-04-05T17:17:02.771Z,100741.88
2023-04-05T17:19:32.172Z,100742.38
2023-04-05T17:22:01.454Z,100741.13
2023-04-05T17:24:36.304Z,100742.56
2023-04-05T17:27:08.246Z,100739.47
2023-04-05T17:29:37.612Z,100742.75
2023-04-05T17:32:06.889Z,100743.47
2023-04-05T17:34:36.258Z,100745.94
2023-04-05T17:37:05.576Z,100744.03
2023-04-05T17:39:34.894Z,100743.59
2023-04-05T17:42:04.156Z,100743.56
2023-04-05T17:44:36.122Z,100742.63
2023-04-05T17:47:09.076Z,100751.44
2023-04-05T17:49:39.164Z,100747.56
2023-04-05T17:52:08.944Z,100745.34
2023-04-05T17:54:39.412Z,100753.47
2023-04-05T17:57:15.295Z,100752.28
2023-04-05T17:59:47.575Z,100754.22
2023-04-05T18:02:17.041Z,100753.84
2023-04-05T18:04:46.547Z,100757.47
2023-04-05T18:07:15.900Z,100763.59
2023-04-05T18:09:45.346Z,100764.19
2023-04-05T18:12:18.282Z,100758.25
2023-04-05T18:14:50.553Z,100765.94
2023-04-05T18:17:20.277Z,100760.22
2023-04-05T18:19:50.289Z,100765.91
2023-04-05T18:22:19.551Z,100766.44
2023-04-05T18:24:48.900Z,100772.31
2023-04-05T18:27:18.173Z,100777.63
2023-04-05T18:29:50.299Z,100775.97
2023-04-05T18:32:19.730Z,100780.38
2023-04-05T18:34:49.189Z,100783.50
2023-04-05T18:37:18.459Z,100776.69
2023-04-05T18:39:47.749Z,100772.81
2023-04-05T18:42:17.098Z,100779.66
2023-04-05T18:44:46.364Z,100770.53
2023-04-05T18:47:18.220Z,100782.22
2023-04-05T18:49:47.500Z,100786.88
2023-04-05T18:52:22.049Z,100784.16
2023-04-05T18:54:51.352Z,100790.88
2023-04-05T18:57:20.753Z,100787.41
2023-04-05T18:59:50.042Z,100799.00
2023-04-05T19:02:21.945Z,100794.03
2023-04-05T19:04:51.731Z,100798.81
2023-04-05T19:07:22.014Z,100797.84
2023-04-05T19:09:51.286Z,100807.75
2023-04-05T19:12:20.550Z,100800.84
2023-04-05T19:14:49.827Z,100806.94
2023-04-05T19:17:19.090Z,100798.81
2023-04-05T19:19:51.343Z,100815.22
2023-04-05T19:22:20.645Z,100808.88
2023-04-05T19:24:49.933Z,100814.84
2023-04-05T19:27:19.208Z,100821.03
2023-04-05T19:29:48.475Z,100815.28
2023-04-05T19:32:17.878Z,100815.84
2023-04-05T19:34:47.150Z,100811.75
2023-04-05T19:37:19.018Z,100821.00
2023-04-05T19:39:48.484Z,100814.81
2023-04-05T19:42:17.817Z,100817.00
2023-04-05T19:44:52.376Z,100821.78
2023-04-05T19:47:22.507Z,100811.59
2023-04-05T19:49:53.822Z,100820.97
2023-04-05T19:52:42.571Z,100813.56
2023-04-05T19:55:30.071Z,100819.38
2023-04-05T19:57:59.850Z,100818.53
2023-04-05T20:00:34.275Z,100814.16
2023-04-05T20:03:04.255Z,100817.00
2023-04-05T20:05:59.301Z,100815.69
2023-04-05T20:08:31.766Z,100815.22
2023-04-05T20:11:01.284Z,100810.69
2023-04-05T20:13:30.802Z,100815.56
2023-04-05T20:16:00.353Z,100808.16
2023-04-05T20:18:30.085Z,100818.31
2023-04-05T20:20:59.633Z,100818.69
2023-04-05T20:23:31.752Z,100821.16
2023-04-05T20:26:01.079Z,100816.22
2023-04-05T20:28:31.141Z,100819.84
2023-04-05T20:31:00.521Z,100814.59
2023-04-05T20:33:36.690Z,100820.69
2023-04-05T20:36:10.861Z,100823.03
2023-04-05T20:38:43.408Z,100816.44
2023-04-05T20:41:12.928Z,100813.84
2023-04-05T20:43:42.425Z,100817.66
2023-04-05T20:46:12.960Z,100805.63
2023-04-05T20:48:42.348Z,100821.03
2023-04-05T20:51:11.833Z,100819.06
2023-04-05T20:53:43.706Z,100822.56
2023-04-05T20:56:13.125Z,100819.09
2023-04-05T20:58:42.924Z,100816.47
2023-04-05T21:01:12.275Z,100808.91
2023-04-05T21:03:42.393Z,100806.94
2023-04-05T21:06:12.025Z,100810.19
2023-04-05T21:08:43.982Z,100807.56
2023-04-05T21:11:13.596Z,100800.34
2023-04-05T21:13:43.550Z,100805.78
2023-04-05T21:16:13.203Z,100808.41
2023-04-05T21:18:42.458Z,100805.94
2023-04-05T21:21:11.746Z,100810.41
2023-04-05T21:23:41.038Z,100811.09
2023-04-05T21:26:12.882Z,100807.31
2023-04-05T21:28:42.137Z,100812.13
2023-04-05T21:31:11.762Z,100805.53
2023-04-05T21:33:41.703Z,100815.13
2023-04-05T21:36:11.166Z,100811.00
2023-04-05T21:38:40.410Z,100815.78
2023-04-05T21:41:09.695Z,100817.09
2023-04-05T21:43:41.549Z,100810.22
2023-04-05T21:46:12.082Z,100811.38
2023-04-05T21:48:41.367Z,100809.88
2023-04-05T21:51:10.633Z,100810.88
2023-04-05T21:53:39.886Z,100816.47
2023-04-05T21:56:09.270Z,100819.94
2023-04-05T21:58:42.357Z,100814.50
2023-04-05T22:01:11.690Z,100816.81
2023-04-05T22:03:41.035Z,100815.19
2023-04-05T22:06:10.615Z,100814.34
2023-04-05T22:08:39.890Z,100813.03
2023-04-05T22:11:09.289Z,100810.41
2023-04-05T22:13:41.409Z,100809.75
2023-04-05T22:16:10.886Z,100807.13
2023-04-05T22:18:40.183Z,100807.16
2023-04-05T22:21:09.442Z,100816.69
2023-04-05T22:23:39.610Z,100807.13
2023-04-05T22:26:10.308Z,100813.88
2023-04-05T22:28:42.162Z,100817.50
2023-04-05T22:31:11.418Z,100814.88
2023-04-05T22:33:40.685Z,100810.41
2023-04-05T22:36:10.670Z,100813.72
2023-04-05T22:38:39.932Z,100808.28
2023-04-05T22:41:09.194Z,100809.22
2023-04-05T22:43:38.530Z,100811.03
2023-04-05T22:46:10.624Z,100811.19
2023-04-05T22:48:39.970Z,100811.03
2023-04-05T22:51:09.260Z,100802.81
2023-04-05T22:53:38.541Z,100807.91
2023-04-05T22:56:08.155Z,100804.44
2023-04-05T22:58:37.461Z,100802.78
2023-04-05T23:01:06.967Z,100806.06
2023-04-05T23:03:38.850Z,100802.59
2023-04-05T23:06:08.305Z,100797.16
2023-04-05T23:08:37.827Z,100796.00
2023-04-05T23:11:07.386Z,100792.03
2023-04-05T23:13:36.730Z,100804.69
2023-04-05T23:16:06.595Z,100798.94
2023-04-05T23:18:35.905Z,100804.03
2023-04-05T23:21:07.835Z,100804.34
2023-04-05T23:23:37.631Z,100796.47
2023-04-05T23:26:07.120Z,100790.56
2023-04-05T23:28:36.417Z,100799.72
2023-04-05T23:31:05.861Z,100797.56
2023-04-05T23:33:36.036Z,100795.09
2023-04-05T23:36:08.344Z,100789.03
2023-04-05T23:38:37.708Z,100794.78
2023-04-05T23:41:07.248Z,100788.38
2023-04-05T23:43:36.797Z,100792.34
2023-04-05T23:46:07.006Z,100788.88
2023-04-05T23:48:36.515Z,100791.50
2023-04-05T23:51:08.478Z,100787.88
2023-04-05T23:53:37.866Z,100791.00
2023-04-05T23:56:07.519Z,100788.16
2023-04-05T23:58:36.808Z,100786.19
